createdAt,value
2018-10-21T00:04:24.153Z,9.00
2018-10-21T00:14:27.396Z,7.83
2018-10-21T00:24:30.636Z,8.37
2018-10-21T00:34:33.912Z,9.67
2018-10-21T00:44:37.124Z,8.17
2018-10-21T00:54:40.469Z,9.03
2018-10-21T01:04:43.734Z,8.90
2018-10-21T01:14:46.971Z,9.57
2018-10-21T01:24:50.197Z,10.77
2018-10-21T01:34:53.595Z,8.67
2018-10-21T01:44:56.887Z,8.50
2018-10-21T01:55:00.089Z,9.40
2018-10-21T02:05:03.337Z,8.33
2018-10-21T02:15:07.385Z,9.57
2018-10-21T02:25:11.476Z,8.70
2018-10-21T02:35:15.405Z,10.87
2018-10-21T02:45:18.707Z,7.73
2018-10-21T02:55:21.909Z,7.70
2018-10-21T03:05:25.186Z,7.80
2018-10-21T03:15:28.401Z,8.17
2018-10-21T03:25:31.890Z,8.40
2018-10-21T03:35:35.169Z,9.10
2018-10-21T03:45:38.393Z,9.47
2018-10-21T03:55:42.671Z,8.77
2018-10-21T04:05:45.908Z,8.53
2018-10-21T04:15:49.116Z,8.87
2018-10-21T04:25:52.361Z,9.97
2018-10-21T04:35:55.611Z,8.40
2018-10-21T04:45:59.328Z,9.20
2018-10-21T04:56:02.548Z,8.80
2018-10-21T05:06:06.195Z,9.37
2018-10-21T05:16:09.471Z,9.00
2018-10-21T05:26:12.656Z,9.37
2018-10-21T05:36:15.889Z,9.50
2018-10-21T05:46:37.098Z,9.97
2018-10-21T05:56:44.605Z,10.33
2018-10-21T06:06:47.999Z,9.50
2018-10-21T06:16:52.532Z,8.97
2018-10-21T06:26:55.824Z,8.83
2018-10-21T06:36:59.353Z,8.40
2018-10-21T06:47:02.730Z,9.97
2018-10-21T06:57:06.221Z,9.47
2018-10-21T07:07:09.674Z,8.97
2018-10-21T07:17:13.092Z,11.37
2018-10-21T07:27:16.417Z,11.80
2018-10-21T07:37:19.937Z,10.20
2018-10-21T07:47:23.414Z,9.00
2018-10-21T07:57:27.022Z,8.13
2018-10-21T08:07:41.794Z,8.33
2018-10-21T08:17:45.149Z,9.10
2018-10-21T08:27:48.462Z,7.77
2018-10-21T08:37:52.204Z,7.33
2018-10-21T08:47:55.732Z,8.40
2018-10-21T08:57:59.114Z,8.50
2018-10-21T09:08:02.519Z,11.37
2018-10-21T09:18:05.855Z,9.00
2018-10-21T09:28:09.532Z,9.60
2018-10-21T09:38:12.837Z,9.43
2018-10-21T09:48:16.099Z,8.53
2018-10-21T09:58:19.527Z,7.80
2018-10-21T10:08:22.877Z,8.30
2018-10-21T10:18:26.445Z,7.77
2018-10-21T10:28:29.856Z,6.93
2018-10-21T10:38:33.094Z,6.77
2018-10-21T10:48:36.480Z,7.07
2018-10-21T10:58:39.766Z,6.67
2018-10-21T11:08:43.083Z,7.30
2018-10-21T11:18:46.533Z,7.03
2018-10-21T11:28:49.932Z,7.50
2018-10-21T11:38:53.332Z,7.80
2018-10-21T11:48:56.578Z,7.30
2018-10-21T11:58:59.817Z,7.40
2018-10-21T12:09:03.189Z,6.97
2018-10-21T12:19:06.489Z,7.10
2018-10-21T12:29:09.826Z,6.60
2018-10-21T12:39:13.055Z,6.17
2018-10-21T12:49:16.334Z,5.60
2018-10-21T12:59:19.665Z,6.70
2018-10-21T13:09:22.987Z,6.00
2018-10-21T13:19:26.323Z,6.10
2018-10-21T13:29:29.584Z,5.53
2018-10-21T13:39:33.127Z,10.80
2018-10-21T13:49:36.473Z,5.37
2018-10-21T13:59:39.750Z,4.83
2018-10-21T14:09:43.000Z,5.47
2018-10-21T14:19:46.232Z,4.83
2018-10-21T14:29:49.477Z,4.80
2018-10-21T14:39:52.717Z,4.57
2018-10-21T14:49:56.021Z,5.00
2018-10-21T14:59:59.362Z,3.63
2018-10-21T15:10:02.570Z,3.63
2018-10-21T15:20:06.519Z,3.57
2018-10-21T15:30:10.615Z,3.70
2018-10-21T15:40:13.998Z,4.13
2018-10-21T15:50:17.269Z,3.67
2018-10-21T16:00:20.761Z,3.67
2018-10-21T16:10:24.078Z,3.80
2018-10-21T16:20:27.469Z,4.37
2018-10-21T16:30:30.831Z,5.20
2018-10-21T16:40:34.143Z,6.30
2018-10-21T16:50:37.896Z,7.87
2018-10-21T17:00:41.128Z,10.10
2018-10-21T17:10:44.429Z,5.13
2018-10-21T17:20:47.908Z,5.87
2018-10-21T17:30:51.125Z,5.83
2018-10-21T17:40:54.696Z,6.40
2018-10-21T17:50:57.996Z,8.40
2018-10-21T18:01:01.736Z,8.63
2018-10-21T18:11:05.301Z,8.73
2018-10-21T18:21:08.552Z,7.87
2018-10-21T18:31:11.874Z,8.47
2018-10-21T18:41:15.818Z,8.07
2018-10-21T18:51:18.845Z,9.43
2018-10-21T19:01:22.092Z,8.77
2018-10-21T19:11:25.358Z,8.90
2018-10-21T19:21:28.635Z,8.90
2018-10-21T19:31:31.860Z,10.60
2018-10-21T19:41:35.093Z,9.77
2018-10-21T19:51:38.333Z,9.17
2018-10-21T20:01:41.622Z,9.70
2018-10-21T20:11:44.857Z,9.40
2018-10-21T20:21:48.167Z,8.10
2018-10-21T20:31:51.400Z,7.80
2018-10-21T20:41:54.715Z,8.40
2018-10-21T20:51:57.920Z,7.80
2018-10-21T21:02:01.141Z,8.00
2018-10-21T21:12:04.862Z,8.90
2018-10-21T21:22:08.139Z,8.70
2018-10-21T21:32:11.349Z,9.07
2018-10-21T21:42:14.645Z,8.57
2018-10-21T21:52:17.848Z,8.70
2018-10-21T22:02:21.062Z,8.70
2018-10-21T22:12:24.289Z,8.57
2018-10-21T22:22:27.541Z,8.00
2018-10-21T22:32:30.765Z,7.70
2018-10-21T22:42:34.025Z,7.33
2018-10-21T22:52:37.261Z,7.17
2018-10-21T23:02:40.513Z,7.13
2018-10-21T23:12:43.947Z,6.93
2018-10-21T23:22:47.222Z,6.63
2018-10-21T23:32:51.408Z,6.47
2018-10-21T23:42:54.648Z,6.83
2018-10-21T23:52:57.902Z,6.00
